Time;durP1;ratioP1;P1;durP2;ratioP2;P2;SDS_P1;SDS_P2;PMS_P1;PMS_P2;Temp;Humidity;BMP_temperature;BMP_pressure;BME280_temperature;BME280_humidity;BME280_pressure;Samples;Min_cycle;Max_cycle;Signal;HPM_P1;HPM_P2
2022/10/15 00:00:47;;;;;;;31.08;22.38;;;;;;;12.66;85.77;100512.06;3580638;40;20048;-62
2022/10/15 00:03:14;;;;;;;35.17;25.60;;;;;;;12.64;86.15;100513.13;3580247;40;20076;-62
2022/10/15 00:05:40;;;;;;;34.55;25.13;;;;;;;12.57;86.61;100499.25;3580863;40;20056;-61
2022/10/15 00:08:09;;;;;;;33.70;25.92;;;;;;;12.64;87.43;100515.84;3577889;40;20138;-62
2022/10/15 00:10:36;;;;;;;34.55;24.83;;;;;;;12.66;87.98;100511.19;3578859;39;20053;-62
2022/10/15 00:13:03;;;;;;;33.55;25.65;;;;;;;11.99;88.50;100387.75;3578505;40;20060;-62
2022/10/15 00:15:30;;;;;;;34.78;25.27;;;;;;;12.71;88.14;100514.38;3580334;40;20061;-62
2022/10/15 00:17:55;;;;;;;38.72;27.25;;;;;;;12.74;88.32;100509.63;3578702;40;20267;-62
2022/10/15 00:20:21;;;;;;;41.38;29.33;;;;;;;12.74;88.80;100512.31;3573805;40;20339;-62
2022/10/15 00:22:47;;;;;;;40.08;28.52;;;;;;;12.27;88.45;100425.13;3574952;40;20052;-62
2022/10/15 00:25:13;;;;;;;32.40;25.42;;;;;;;12.22;88.27;100430.00;3581902;40;20075;-62
2022/10/15 00:27:38;;;;;;;34.70;24.77;;;;;;;12.84;88.04;100522.41;3576897;39;20060;-62
2022/10/15 00:30:06;;;;;;;32.65;24.52;;;;;;;12.85;88.09;100519.59;3576550;40;20092;-63
2022/10/15 00:32:32;;;;;;;34.08;26.38;;;;;;;12.86;87.92;100515.06;3578575;40;20277;-61
2022/10/15 00:34:58;;;;;;;34.13;25.00;;;;;;;12.09;87.84;100391.47;3576082;40;20399;-62
2022/10/15 00:37:24;;;;;;;32.70;25.55;;;;;;;12.01;88.36;100369.63;3583595;39;20078;-62
2022/10/15 00:39:49;;;;;;;31.52;24.95;;;;;;;12.91;88.39;100519.13;3579708;39;20057;-62
2022/10/15 00:42:16;;;;;;;37.25;27.25;;;;;;;12.37;88.96;100419.00;3576689;40;20056;-62
2022/10/15 00:44:52;;;;;;;30.58;25.38;;;;;;;13.02;88.96;100518.31;3576495;40;20054;-62
2022/10/15 00:47:27;;;;;;;34.03;26.88;;;;;;;13.07;89.83;100526.06;3573955;40;20045;-62
2022/10/15 00:50:18;;;;;;;34.38;26.75;;;;;;;13.12;89.51;100524.69;3577405;40;20134;-62
2022/10/15 00:53:07;;;;;;;34.92;27.70;;;;;;;13.17;89.79;100527.91;3575315;40;20053;-63
2022/10/15 00:55:41;;;;;;;30.80;26.42;;;;;;;13.19;89.50;100522.38;3572362;40;20061;-63
2022/10/15 00:58:27;;;;;;;34.90;26.85;;;;;;;13.17;90.06;100517.13;3574408;40;20090;-63
2022/10/15 01:00:55;;;;;;;36.30;29.45;;;;;;;13.28;89.71;100529.81;3576498;40;21470;-63
2022/10/15 01:03:21;;;;;;;35.60;26.35;;;;;;;13.32;89.38;100519.63;3579053;40;20064;-63
2022/10/15 01:05:52;;;;;;;34.13;26.10;;;;;;;12.69;89.08;100414.72;3577859;39;20099;-63
2022/10/15 01:08:18;;;;;;;32.95;26.02;;;;;;;13.37;89.73;100522.84;3586308;39;20136;-63
2022/10/15 01:11:13;;;;;;;34.72;27.58;;;;;;;13.33;89.63;100513.25;3580195;39;20434;-62
2022/10/15 01:14:08;;;;;;;32.47;25.80;;;;;;;13.35;89.59;100505.88;3569732;40;20095;-61
2022/10/15 01:16:53;;;;;;;29.42;25.52;;;;;;;13.47;89.18;100519.28;3576474;40;20460;-61
2022/10/15 01:20:16;;;;;;;29.95;25.73;;;;;;;13.49;89.64;100515.63;3578526;40;20060;-62
2022/10/15 01:23:28;;;;;;;28.52;25.25;;;;;;;13.51;89.72;100509.13;3550966;40;20052;-61
2022/10/15 01:26:11;;;;;;;27.00;23.50;;;;;;;13.56;89.72;100506.91;3570085;40;20068;-61
2022/10/15 01:29:20;;;;;;;27.70;24.45;;;;;;;13.59;89.62;100506.66;3578213;40;20181;-61
2022/10/15 01:32:10;;;;;;;30.42;24.73;;;;;;;13.62;89.79;100492.91;3580180;40;20358;-62
2022/10/15 01:35:25;;;;;;;30.83;24.38;;;;;;;13.66;89.71;100488.09;3584410;40;20056;-61
2022/10/15 01:38:05;;;;;;;27.95;23.17;;;;;;;13.70;90.05;100486.88;3579119;40;20057;-62
2022/10/15 01:40:49;;;;;;;26.60;23.70;;;;;;;13.74;89.94;100487.50;3577189;40;20060;-62
2022/10/15 01:43:28;;;;;;;26.95;23.75;;;;;;;13.77;89.69;100487.28;3573619;40;20071;-61
2022/10/15 01:46:05;;;;;;;28.25;22.77;;;;;;;13.80;89.76;100492.44;3577063;40;20055;-61
2022/10/15 01:48:36;;;;;;;29.75;24.17;;;;;;;13.83;89.22;100484.94;3580980;40;20060;-61
2022/10/15 01:51:06;;;;;;;27.40;23.05;;;;;;;13.85;89.31;100482.09;3580907;40;20049;-61
2022/10/15 01:53:35;;;;;;;26.73;23.75;;;;;;;13.85;89.57;100474.84;3579298;40;20059;-62
2022/10/15 01:56:11;;;;;;;26.00;23.20;;;;;;;13.77;89.36;100463.81;3579284;40;20307;-62
2022/10/15 01:58:45;;;;;;;27.13;23.48;;;;;;;13.13;89.42;100352.84;3577556;40;20422;-62
2022/10/15 02:01:11;;;;;;;26.90;22.70;;;;;;;13.91;89.27;100482.44;3581117;40;20052;-64
2022/10/15 02:03:50;;;;;;;28.40;25.05;;;;;;;13.91;89.32;100468.06;3583155;39;20117;-62
2022/10/15 02:06:43;;;;;;;30.42;27.20;;;;;;;13.96;89.03;100471.28;3580837;40;20060;-65
2022/10/15 02:09:49;;;;;;;27.00;23.45;;;;;;;13.96;88.75;100471.28;3580040;40;20072;-62
2022/10/15 02:12:47;;;;;;;27.52;21.77;;;;;;;13.87;89.22;100447.72;3571734;40;20056;-62
2022/10/15 02:15:56;;;;;;;26.33;23.10;;;;;;;14.00;88.97;100466.47;3582279;39;20760;-62
2022/10/15 02:18:50;;;;;;;25.63;22.05;;;;;;;14.00;89.05;100459.22;3577640;40;20052;-63
2022/10/15 02:21:51;;;;;;;26.15;22.20;;;;;;;14.01;88.46;100462.78;3576447;40;20449;-62
2022/10/15 02:24:24;;;;;;;27.08;23.40;;;;;;;14.03;88.90;100458.97;3574532;40;20049;-62
2022/10/15 02:26:57;;;;;;;28.67;23.83;;;;;;;14.04;88.94;100462.53;3580229;40;20064;-61
2022/10/15 02:29:31;;;;;;;;;;;;;;;13.99;88.81;100457.50;3581023;40;20055;-63
2022/10/15 02:32:01;;;;;;;25.15;22.45;;;;;;;14.01;89.27;100450.13;3578556;40;20284;-62
2022/10/15 02:34:32;;;;;;;28.77;24.63;;;;;;;14.00;89.61;100440.31;3582036;40;20317;-62
2022/10/15 02:37:03;;;;;;;24.65;22.05;;;;;;;13.50;89.45;100369.66;3580167;40;20059;-62
2022/10/15 02:39:29;;;;;;;27.25;23.20;;;;;;;13.89;89.03;100418.69;3580047;40;20063;-62
2022/10/15 02:41:56;;;;;;;29.42;25.80;;;;;;;14.06;89.50;100431.69;3580562;40;20546;-62
2022/10/15 02:44:22;;;;;;;27.48;24.20;;;;;;;14.08;89.32;100440.53;3578225;40;20086;-62
2022/10/15 02:46:48;;;;;;;26.00;23.20;;;;;;;14.02;89.17;100418.53;3579779;40;20273;-62
2022/10/15 02:49:14;;;;;;;26.63;23.58;;;;;;;14.08;88.71;100427.03;3580254;40;20121;-62
2022/10/15 02:51:40;;;;;;;27.05;24.13;;;;;;;14.07;88.93;100425.28;3579978;39;20076;-62
2022/10/15 02:54:07;;;;;;;25.90;23.08;;;;;;;14.03;89.17;100415.72;3581761;40;20056;-62
2022/10/15 02:56:33;;;;;;;28.85;24.67;;;;;;;14.05;89.29;100421.00;3579632;39;20045;-62
2022/10/15 02:58:59;;;;;;;26.70;23.63;;;;;;;13.36;89.84;100302.44;3580439;40;20059;-62
2022/10/15 03:01:25;;;;;;;28.80;24.50;;;;;;;14.09;89.39;100411.66;3582528;40;20056;-63
2022/10/15 03:03:50;;;;;;;27.77;23.15;;;;;;;14.09;89.56;100407.13;3581136;40;20114;-62
2022/10/15 03:06:16;;;;;;;25.20;22.48;;;;;;;13.38;89.21;100287.84;3581552;40;20060;-63
2022/10/15 03:08:43;;;;;;;26.27;22.80;;;;;;;14.12;89.08;100408.72;3579250;40;20068;-62
2022/10/15 03:11:10;;;;;;;29.42;23.33;;;;;;;14.11;89.04;100405.16;3581240;39;20052;-61
2022/10/15 03:13:38;;;;;;;26.92;23.02;;;;;;;14.05;88.80;100396.66;3579930;40;20048;-62
2022/10/15 03:16:09;;;;;;;31.40;23.90;;;;;;;14.08;89.09;100404.53;3580939;40;20063;-62
2022/10/15 03:18:36;;;;;;;27.05;23.08;;;;;;;14.09;89.36;100411.66;3577083;40;20056;-62
2022/10/15 03:21:02;;;;;;;28.38;23.75;;;;;;;14.03;89.13;100402.22;3580268;40;20048;-61
2022/10/15 03:23:28;;;;;;;28.70;23.58;;;;;;;14.06;89.78;100411.91;3579738;39;20051;-61
2022/10/15 03:25:54;;;;;;;33.42;24.52;;;;;;;13.91;89.84;100382.47;3579517;40;20564;-61
2022/10/15 03:28:21;;;;;;;27.77;23.58;;;;;;;14.06;90.24;100409.22;3578957;40;20051;-61
2022/10/15 03:30:47;;;;;;;27.67;23.10;;;;;;;14.09;89.77;100406.25;3579894;40;20053;-62
2022/10/15 03:33:13;;;;;;;29.75;24.13;;;;;;;14.04;89.56;100409.31;3580705;40;20106;-61
2022/10/15 03:35:39;;;;;;;29.70;23.65;;;;;;;14.10;90.02;100411.53;3579030;39;20052;-62
2022/10/15 03:38:06;;;;;;;32.03;24.55;;;;;;;13.59;89.38;100322.16;3585604;39;20059;-62
2022/10/15 03:40:32;;;;;;;29.92;23.23;;;;;;;13.51;89.99;100303.91;3578433;40;20048;-62
2022/10/15 03:42:57;;;;;;;30.50;24.85;;;;;;;14.14;90.00;100406.72;3580639;40;20047;-61
2022/10/15 03:45:24;;;;;;;28.00;24.08;;;;;;;13.37;89.57;100277.16;3576291;40;20375;-61
2022/10/15 03:47:50;;;;;;;30.25;23.55;;;;;;;14.15;90.06;100401.19;3581362;40;20048;-62
2022/10/15 03:50:16;;;;;;;29.92;24.45;;;;;;;14.10;89.70;100383.63;3577793;40;20212;-61
2022/10/15 03:52:42;;;;;;;31.40;24.40;;;;;;;14.17;89.51;100393.78;3576363;40;20387;-63
2022/10/15 03:55:09;;;;;;;28.20;23.77;;;;;;;13.56;89.25;100296.25;3579583;40;20136;-61
2022/10/15 03:57:38;;;;;;;34.20;25.17;;;;;;;14.17;89.96;100396.50;3581708;40;20048;-61
2022/10/15 04:00:07;;;;;;;32.22;23.67;;;;;;;14.16;89.81;100397.50;3580554;40;20317;-61
2022/10/15 04:02:33;;;;;;;34.05;24.48;;;;;;;14.17;89.63;100396.50;3580760;40;20052;-61
2022/10/15 04:04:58;;;;;;;32.63;24.55;;;;;;;14.19;90.34;100403.66;3584472;40;20067;-61
2022/10/15 04:07:25;;;;;;;31.00;25.42;;;;;;;14.18;90.07;100397.38;3580855;40;20325;-61
2022/10/15 04:09:51;;;;;;;38.15;25.58;;;;;;;14.18;89.92;100402.78;3580737;40;20060;-61
2022/10/15 04:12:17;;;;;;;33.17;25.08;;;;;;;14.17;90.17;100399.19;3579881;40;20076;-61
2022/10/15 04:14:43;;;;;;;33.65;26.17;;;;;;;14.21;89.62;100404.34;3576601;40;20060;-62
2022/10/15 04:17:09;;;;;;;34.92;26.27;;;;;;;14.01;90.14;100365.50;3578701;40;20064;-63
2022/10/15 04:19:35;;;;;;;34.63;26.55;;;;;;;13.68;90.10;100321.38;3579583;40;20056;-62
2022/10/15 04:22:01;;;;;;;31.52;25.77;;;;;;;14.23;90.27;100407.78;3578176;40;20049;-62
2022/10/15 04:24:27;;;;;;;37.08;27.25;;;;;;;14.22;90.17;100409.66;3579519;40;20326;-62
2022/10/15 04:26:52;;;;;;;35.65;26.90;;;;;;;14.25;90.52;100411.25;3580886;39;20059;-62
2022/10/15 04:29:18;;;;;;;35.25;28.05;;;;;;;14.26;90.66;100412.94;3586718;39;20052;-61
2022/10/15 04:31:44;;;;;;;36.53;28.60;;;;;;;14.18;90.26;100400.09;3581360;40;20415;-62
2022/10/15 04:34:10;;;;;;;37.40;28.63;;;;;;;13.40;90.58;100258.84;3581686;40;20051;-62
2022/10/15 04:36:37;;;;;;;36.88;28.88;;;;;;;13.63;90.63;100281.25;3579092;40;20076;-62
2022/10/15 04:39:04;;;;;;;36.92;27.83;;;;;;;14.25;90.33;100386.91;3575467;40;20053;-62
2022/10/15 04:41:30;;;;;;;38.83;28.23;;;;;;;14.37;90.17;100402.09;3578464;40;20067;-61
2022/10/15 04:43:57;;;;;;;39.08;28.88;;;;;;;14.37;90.22;100400.25;3578560;40;20399;-62
2022/10/15 04:46:24;;;;;;;37.00;27.98;;;;;;;14.38;89.82;100395.69;3576858;40;20057;-61
2022/10/15 04:48:49;;;;;;;36.88;28.45;;;;;;;14.42;89.72;100394.44;3579491;40;20052;-62
2022/10/15 04:51:19;;;;;;;40.60;29.05;;;;;;;14.44;90.28;100400.59;3576207;40;20280;-62
2022/10/15 04:53:45;;;;;;;36.20;27.60;;;;;;;14.44;89.56;100395.19;3581559;40;20085;-62
2022/10/15 04:56:20;;;;;;;36.50;28.38;;;;;;;14.42;89.50;100389.03;3584524;39;20048;-62
2022/10/15 04:58:47;;;;;;;40.25;27.48;;;;;;;14.45;89.93;100390.63;3578680;40;20056;-62
2022/10/15 05:01:17;;;;;;;38.17;28.00;;;;;;;14.44;89.50;100410.56;3580782;40;20057;-62
2022/10/15 05:03:45;;;;;;;37.22;27.08;;;;;;;14.45;89.67;100383.34;3579639;40;20068;-62
2022/10/15 05:06:15;;;;;;;35.05;25.92;;;;;;;13.74;89.38;100271.41;3580933;40;20277;-62
2022/10/15 05:08:42;;;;;;;35.13;26.77;;;;;;;14.46;89.04;100395.91;3579165;40;20118;-62
2022/10/15 05:11:13;;;;;;;32.70;25.55;;;;;;;14.46;89.11;100393.22;3580903;40;20132;-62
2022/10/15 05:13:39;;;;;;;33.60;26.35;;;;;;;14.38;89.16;100384.88;3580459;40;20071;-62
2022/10/15 05:16:27;;;;;;;31.30;24.67;;;;;;;14.47;88.43;100400.31;3578074;40;20060;-62
2022/10/15 05:18:59;;;;;;;30.02;23.83;;;;;;;14.43;88.40;100398.88;3579246;40;20056;-62
2022/10/15 05:21:26;;;;;;;31.00;24.25;;;;;;;14.45;88.43;100401.44;3580055;40;20130;-63
2022/10/15 05:23:51;;;;;;;32.72;23.88;;;;;;;13.78;88.40;100289.06;3577401;40;20398;-63
2022/10/15 05:26:23;;;;;;;32.13;25.25;;;;;;;14.43;88.34;100398.88;3580687;40;20052;-62
2022/10/15 05:28:50;;;;;;;27.50;22.30;;;;;;;14.41;87.66;100408.97;3580469;40;20067;-62
2022/10/15 05:31:20;;;;;;;29.60;23.88;;;;;;;14.40;88.36;100405.41;3579198;40;20103;-62
2022/10/15 05:33:48;;;;;;;28.92;23.30;;;;;;;14.38;88.29;100404.66;3580848;40;20052;-62
2022/10/15 05:36:22;;;;;;;30.35;24.80;;;;;;;14.41;87.95;100411.66;3581226;40;20083;-62
2022/10/15 05:38:52;;;;;;;29.23;23.38;;;;;;;14.39;88.11;100405.50;3578132;40;20261;-62
2022/10/15 05:41:18;;;;;;;31.17;24.35;;;;;;;14.40;88.30;100415.38;3580241;40;20093;-63
2022/10/15 05:43:50;;;;;;;30.63;24.58;;;;;;;14.38;87.93;100401.97;3580179;40;20060;-63
2022/10/15 05:46:18;;;;;;;30.95;23.95;;;;;;;14.37;88.11;100394.00;3581576;40;20057;-62
2022/10/15 05:48:52;;;;;;;30.95;25.13;;;;;;;14.39;88.45;100392.84;3579479;40;20077;-62
2022/10/15 05:51:18;;;;;;;31.23;24.42;;;;;;;14.40;88.31;100391.03;3580218;40;20052;-62
2022/10/15 05:53:45;;;;;;;29.42;23.83;;;;;;;14.41;87.70;100387.31;3580840;40;20060;-62
2022/10/15 05:56:14;;;;;;;32.10;24.83;;;;;;;14.41;88.12;100390.03;3582342;40;20080;-62
2022/10/15 05:58:40;;;;;;;31.02;24.85;;;;;;;14.36;87.80;100376.88;3579982;40;20053;-62
2022/10/15 06:01:10;;;;;;;32.15;24.48;;;;;;;14.44;87.68;100395.19;3580104;40;20063;-61
2022/10/15 06:03:37;;;;;;;30.75;24.05;;;;;;;14.42;87.38;100385.47;3580191;40;20068;-62
2022/10/15 06:06:03;;;;;;;31.25;25.52;;;;;;;14.42;87.19;100389.03;3580754;40;20075;-62
2022/10/15 06:08:30;;;;;;;31.85;24.15;;;;;;;13.38;87.24;100222.16;3579026;40;20082;-62
2022/10/15 06:11:03;;;;;;;32.25;25.65;;;;;;;14.41;87.38;100406.25;3582936;40;20044;-63
2022/10/15 06:13:28;;;;;;;31.92;26.00;;;;;;;14.37;87.79;100399.41;3580214;40;20066;-63
2022/10/15 06:15:54;;;;;;;35.92;26.38;;;;;;;14.35;87.78;100390.53;3582125;40;20342;-63
2022/10/15 06:18:19;;;;;;;36.75;27.40;;;;;;;14.33;87.36;100395.22;3586109;40;20045;-63
2022/10/15 06:20:51;;;;;;;37.83;27.83;;;;;;;14.33;88.02;100395.22;3581243;40;20295;-63
2022/10/15 06:23:18;;;;;;;39.13;28.30;;;;;;;14.34;87.86;100399.66;3580547;40;20432;-64
2022/10/15 06:25:44;;;;;;;43.08;30.55;;;;;;;14.35;87.88;100404.06;3579899;40;20060;-63
2022/10/15 06:28:10;;;;;;;38.92;29.60;;;;;;;14.34;87.74;100397.81;3577567;40;20067;-64
2022/10/15 06:30:36;;;;;;;41.45;30.25;;;;;;;14.34;87.58;100395.09;3578865;40;20080;-64
2022/10/15 06:33:01;;;;;;;41.28;30.95;;;;;;;14.36;87.67;100386.84;3577486;40;20048;-63
2022/10/15 06:35:32;;;;;;;42.45;31.50;;;;;;;14.33;87.44;100396.06;3579672;40;20079;-63
2022/10/15 06:38:00;;;;;;;38.03;29.55;;;;;;;14.35;87.58;100402.22;3580787;40;20118;-64
2022/10/15 06:40:26;;;;;;;43.65;30.33;;;;;;;14.27;87.81;100387.63;3579296;40;20055;-63
2022/10/15 06:42:51;;;;;;;40.03;31.02;;;;;;;14.37;87.86;100394.00;3576312;40;20298;-63
2022/10/15 06:45:17;;;;;;;39.75;30.75;;;;;;;14.41;87.96;100390.03;3580780;40;20063;-63
2022/10/15 06:47:43;;;;;;;41.90;31.70;;;;;;;14.42;87.54;100383.63;3579150;40;20056;-63
2022/10/15 06:50:09;;;;;;;37.78;29.35;;;;;;;14.43;87.59;100382.66;3577851;40;20056;-63
2022/10/15 06:52:35;;;;;;;46.63;36.72;;;;;;;14.44;87.14;100395.19;3579433;40;20064;-63
2022/10/15 06:55:01;;;;;;;36.63;28.83;;;;;;;14.36;86.93;100382.28;3580533;40;20048;-63
2022/10/15 06:57:27;;;;;;;33.92;27.77;;;;;;;14.40;87.41;100385.63;3575396;40;20055;-63
2022/10/15 06:59:53;;;;;;;35.45;27.98;;;;;;;14.42;87.38;100385.47;3579620;40;20133;-63
2022/10/15 07:02:19;;;;;;;33.50;27.58;;;;;;;14.42;86.69;100389.03;3585274;40;20401;-63
2022/10/15 07:04:46;;;;;;;33.35;25.92;;;;;;;14.38;86.96;100384.88;3580758;40;20407;-64
2022/10/15 07:07:12;;;;;;;30.02;23.80;;;;;;;14.37;87.15;100388.59;3576747;40;20059;-62
2022/10/15 07:09:38;;;;;;;31.90;25.00;;;;;;;13.63;86.85;100275.84;3579937;40;20097;-63
2022/10/15 07:12:05;;;;;;;33.42;25.23;;;;;;;14.37;87.53;100402.09;3575082;40;20158;-63
2022/10/15 07:14:30;;;;;;;30.52;22.95;;;;;;;14.41;86.87;100406.25;3580947;40;20121;-62
2022/10/15 07:16:57;;;;;;;29.25;23.55;;;;;;;14.29;86.86;100385.66;3577329;39;20052;-62
2022/10/15 07:19:23;;;;;;;29.40;22.27;;;;;;;14.35;87.52;100401.34;3579198;40;20122;-62
2022/10/15 07:21:49;;;;;;;28.33;22.33;;;;;;;14.46;87.10;100404.03;3578659;40;20446;-62
2022/10/15 07:24:15;;;;;;;31.10;23.00;;;;;;;13.42;87.04;100210.16;3578854;40;20056;-62
2022/10/15 07:26:40;;;;;;;28.98;22.58;;;;;;;14.58;87.71;100381.34;3581866;40;20060;-63
2022/10/15 07:29:06;;;;;;;29.42;22.65;;;;;;;14.69;87.26;100375.03;3583917;40;20059;-62
2022/10/15 07:31:32;;;;;;;28.05;22.00;;;;;;;14.75;87.11;100366.38;3576861;40;20056;-62
2022/10/15 07:33:58;;;;;;;25.42;20.48;;;;;;;14.88;86.62;100365.31;3579835;40;20061;-62
2022/10/15 07:36:25;;;;;;;27.40;20.63;;;;;;;14.94;85.97;100371.06;3579866;39;20064;-64
2022/10/15 07:38:51;;;;;;;26.13;20.38;;;;;;;14.96;85.61;100366.34;3578729;40;20064;-63
2022/10/15 07:41:17;;;;;;;25.45;20.73;;;;;;;14.29;85.41;100245.06;3580524;39;20285;-62
2022/10/15 07:43:44;;;;;;;25.75;20.30;;;;;;;14.99;85.54;100363.38;3579337;40;20060;-63
2022/10/15 07:46:10;;;;;;;26.35;20.00;;;;;;;15.01;85.21;100366.81;3580602;40;20088;-62
2022/10/15 07:48:36;;;;;;;25.98;19.65;;;;;;;15.03;86.00;100372.06;3578851;40;20394;-62
2022/10/15 07:51:06;;;;;;;24.10;18.80;;;;;;;15.10;85.31;100338.09;3580765;39;20075;-62
2022/10/15 07:53:33;;;;;;;25.05;17.48;;;;;;;15.36;84.79;100360.13;3581522;40;20056;-63
2022/10/15 07:56:09;;;;;;;21.33;17.25;;;;;;;15.49;84.22;100344.47;3581300;40;21275;-62
2022/10/15 07:58:37;;;;;;;21.52;16.23;;;;;;;15.64;83.03;100357.66;3584465;40;20060;-62
2022/10/15 08:01:06;;;;;;;18.08;14.50;;;;;;;15.68;81.79;100353.69;3579274;40;20049;-62
2022/10/15 08:03:32;;;;;;;18.83;14.90;;;;;;;15.68;81.58;100357.25;3582177;40;20044;-63
2022/10/15 08:06:03;;;;;;;18.95;14.27;;;;;;;15.67;82.18;100351.97;3582338;40;20300;-63
2022/10/15 08:08:30;;;;;;;17.20;13.57;;;;;;;15.69;81.17;100356.25;3582787;40;20060;-65
2022/10/15 08:10:57;;;;;;;17.45;12.60;;;;;;;15.29;81.58;100275.03;3581832;40;20064;-63
2022/10/15 08:13:23;;;;;;;16.02;12.38;;;;;;;15.14;81.44;100236.63;3582238;40;20100;-63
2022/10/15 08:15:49;;;;;;;15.38;12.30;;;;;;;15.81;81.35;100343.44;3585943;40;20125;-63
2022/10/15 08:18:14;;;;;;;15.27;11.57;;;;;;;15.09;81.16;100212.66;3581943;40;20059;-63
2022/10/15 08:20:41;;;;;;;13.50;11.50;;;;;;;15.89;81.75;100340.88;3582014;40;20064;-63
2022/10/15 08:23:15;;;;;;;13.30;10.07;;;;;;;16.00;80.87;100338.03;3580394;40;20052;-63
2022/10/15 08:25:41;;;;;;;17.15;11.75;;;;;;;16.09;81.08;100340.91;3579338;40;20322;-64
2022/10/15 08:28:10;;;;;;;14.40;10.63;;;;;;;15.42;80.57;100226.84;3578643;40;20108;-63
2022/10/15 08:30:37;;;;;;;12.93;9.77;;;;;;;16.15;79.73;100346.59;3579788;40;20133;-63
2022/10/15 08:33:03;;;;;;;14.68;9.63;;;;;;;16.17;80.02;100346.44;3579317;40;20403;-63
2022/10/15 08:35:28;;;;;;;10.73;8.93;;;;;;;16.18;79.68;100340.03;3580192;40;20083;-63
2022/10/15 08:37:54;;;;;;;11.93;8.93;;;;;;;15.47;79.58;100211.03;3583904;40;20402;-63
2022/10/15 08:40:21;;;;;;;9.75;8.75;;;;;;;16.25;79.94;100330.34;3579349;40;20053;-63
2022/10/15 08:42:49;;;;;;;9.45;7.68;;;;;;;16.29;80.22;100311.91;3579792;40;20092;-63
2022/10/15 08:45:43;;;;;;;7.63;6.53;;;;;;;16.29;79.42;100310.06;3577447;40;20089;-63
2022/10/15 08:48:27;;;;;;;9.40;6.32;;;;;;;16.32;79.74;100309.75;3579558;40;20110;-63
2022/10/15 08:51:08;;;;;;;7.97;6.50;;;;;;;16.39;78.76;100318.16;3577599;40;20060;-63
2022/10/15 08:54:00;;;;;;;7.63;6.03;;;;;;;16.29;79.62;100303.78;3577157;40;20376;-63
2022/10/15 08:56:35;;;;;;;7.50;5.95;;;;;;;16.38;79.20;100317.31;3580524;40;20064;-63
2022/10/15 08:59:32;;;;;;;5.97;5.38;;;;;;;16.40;79.41;100303.63;3579970;40;20047;-64
2022/10/15 09:02:25;;;;;;;6.20;5.00;;;;;;;16.45;79.45;100299.44;3579330;40;20426;-63
2022/10/15 09:05:22;;;;;;;9.23;5.97;;;;;;;16.52;78.53;100291.59;3582385;40;20153;-64
2022/10/15 09:08:09;;;;;;;9.23;6.07;;;;;;;16.57;79.17;100289.31;3580059;40;20057;-62
2022/10/15 09:11:01;;;;;;;8.38;6.03;;;;;;;16.60;78.75;100289.00;3581142;40;20049;-63
2022/10/15 09:13:41;;;;;;;8.77;6.05;;;;;;;16.60;77.76;100285.44;3581626;40;20060;-62
2022/10/15 09:16:18;;;;;;;8.30;5.80;;;;;;;16.57;78.80;100285.72;3579897;40;20367;-63
2022/10/15 09:18:49;;;;;;;8.07;5.80;;;;;;;16.54;78.01;100296.88;3579145;40;20057;-62
2022/10/15 09:21:14;;;;;;;5.50;4.90;;;;;;;16.14;78.20;100222.00;3582204;40;20056;-63
2022/10/15 09:23:42;;;;;;;6.65;5.45;;;;;;;16.46;78.98;100275.91;3583610;40;20048;-63
2022/10/15 09:26:11;;;;;;;5.03;4.50;;;;;;;16.54;79.16;100286.03;3577495;40;20092;-62
2022/10/15 09:29:21;;;;;;;7.18;4.85;;;;;;;16.47;79.33;100272.19;3580488;40;20610;-63
2022/10/15 09:32:21;;;;;;;4.88;4.38;;;;;;;16.54;79.48;100286.88;3568093;40;20442;-63
2022/10/15 09:35:23;;;;;;;4.35;3.95;;;;;;;16.42;79.58;100272.63;3581803;40;20395;-63
2022/10/15 09:38:24;;;;;;;5.20;4.18;;;;;;;16.55;79.56;100285.00;3580919;40;20096;-67
2022/10/15 09:41:24;;;;;;;4.88;4.30;;;;;;;16.56;80.96;100278.59;3576830;40;20144;-63
2022/10/15 09:43:56;;;;;;;5.63;3.92;;;;;;;16.52;81.63;100282.59;3580055;40;20068;-64
2022/10/15 09:46:21;;;;;;;5.68;3.92;;;;;;;16.50;82.39;100274.63;3579593;40;20306;-63
2022/10/15 09:49:11;;;;;;;4.65;3.80;;;;;;;16.42;83.51;100272.63;3582964;40;20040;-63
2022/10/15 09:52:15;;;;;;;4.03;3.63;;;;;;;16.39;84.23;100270.19;3581368;40;20050;-63
2022/10/15 09:54:59;;;;;;;3.83;3.20;;;;;;;16.37;84.34;100261.38;3579880;40;20049;-64
2022/10/15 09:57:28;;;;;;;4.57;3.30;;;;;;;16.34;85.50;100258.94;3578865;40;20419;-63
2022/10/15 10:00:01;;;;;;;3.15;2.95;;;;;;;16.42;85.45;100266.34;3582775;40;20056;-65
2022/10/15 10:02:28;;;;;;;6.43;3.35;;;;;;;16.45;85.42;100276.91;3581183;40;20052;-63
2022/10/15 10:04:55;;;;;;;3.13;2.80;;;;;;;16.47;85.38;100259.47;3581890;40;20056;-64
2022/10/15 10:07:36;;;;;;;3.15;2.65;;;;;;;16.49;86.10;100262.03;3578021;40;20458;-65
2022/10/15 10:10:24;;;;;;;2.83;2.63;;;;;;;16.50;85.97;100258.34;3582366;40;20095;-65
2022/10/15 10:12:53;;;;;;;3.17;2.80;;;;;;;16.54;85.78;100261.59;3578578;40;20315;-63
2022/10/15 10:15:27;;;;;;;3.97;2.80;;;;;;;16.57;85.44;100253.16;3579457;40;20040;-64
2022/10/15 10:17:56;;;;;;;3.97;3.10;;;;;;;16.60;86.27;100256.44;3580391;40;20052;-63
2022/10/15 10:20:29;;;;;;;4.82;2.75;;;;;;;16.63;85.48;100258.00;3578205;40;20473;-64
2022/10/15 10:23:15;;;;;;;2.38;2.17;;;;;;;16.66;85.31;100258.56;3581551;40;20056;-63
2022/10/15 10:25:41;;;;;;;3.75;2.60;;;;;;;16.70;84.81;100254.53;3581709;40;20129;-63
2022/10/15 10:28:13;;;;;;;3.47;2.53;;;;;;;16.73;85.35;100256.13;3586485;39;20063;-62
2022/10/15 10:31:02;;;;;;;1.90;1.77;;;;;;;16.75;84.79;100267.72;3580085;40;20052;-63
2022/10/15 10:33:33;;;;;;;2.50;1.92;;;;;;;16.81;85.52;100267.13;3581488;40;20056;-64
2022/10/15 10:36:00;;;;;;;1.63;1.52;;;;;;;16.84;84.99;100261.41;3578305;40;20135;-63
2022/10/15 10:38:37;;;;;;;2.00;1.67;;;;;;;16.88;84.02;100260.09;3580545;40;20113;-63
2022/10/15 10:41:09;;;;;;;2.45;1.30;;;;;;;16.90;84.16;100255.38;3578554;40;20057;-64
2022/10/15 10:43:39;;;;;;;1.83;1.70;;;;;;;16.96;84.26;100274.78;3582016;40;20075;-64
2022/10/15 10:46:18;;;;;;;1.98;1.50;;;;;;;16.77;84.39;100227.69;3579369;40;20056;-64
2022/10/15 10:48:47;;;;;;;20.23;13.05;;;;;;;17.11;84.59;100268.69;3579275;40;20042;-64
2022/10/15 10:51:23;;;;;;;7.55;4.28;;;;;;;16.09;84.27;100092.31;3577319;40;20083;-64
2022/10/15 10:53:57;;;;;;;2.70;1.63;;;;;;;17.16;84.65;100265.53;3579669;40;20076;-62
2022/10/15 10:56:39;;;;;;;1.80;1.50;;;;;;;17.09;84.71;100248.97;3578904;40;20127;-63
2022/10/15 10:59:21;;;;;;;1.70;1.60;;;;;;;17.17;84.44;100253.66;3585203;39;20056;-63
2022/10/15 11:01:48;;;;;;;2.53;1.90;;;;;;;16.71;84.84;100169.44;3579740;40;20060;-63
2022/10/15 11:04:26;;;;;;;2.40;1.38;;;;;;;17.22;85.10;100256.78;3581403;40;20048;-64
2022/10/15 11:07:23;;;;;;;2.33;1.63;;;;;;;16.76;85.31;100166.28;3579536;40;20137;-64
2022/10/15 11:10:34;;;;;;;1.70;1.60;;;;;;;17.29;84.84;100249.72;3580601;40;20084;-64
2022/10/15 11:14:02;;;;;;;3.35;2.05;;;;;;;17.32;85.02;100240.44;3572104;40;20055;-64
2022/10/15 11:17:24;;;;;;;2.40;1.75;;;;;;;17.38;85.35;100243.38;3576906;40;20138;-64
2022/10/15 11:20:02;;;;;;;5.95;5.18;;;;;;;17.44;84.62;100251.91;3568946;40;20107;-65
2022/10/15 11:22:54;;;;;;;1.92;1.83;;;;;;;17.47;85.31;100246.16;3575697;40;20044;-64
2022/10/15 11:25:44;;;;;;;1.35;1.25;;;;;;;17.52;85.15;100238.44;3577220;40;20051;-64
2022/10/15 11:28:58;;;;;;;2.30;1.63;;;;;;;17.56;84.07;100245.25;3579332;40;20063;-64
2022/10/15 11:31:45;;;;;;;1.42;1.33;;;;;;;17.61;84.50;100243.78;3578776;40;20123;-64
2022/10/15 11:34:37;;;;;;;1.88;1.42;;;;;;;17.04;84.36;100137.25;3579942;40;20130;-64
2022/10/15 11:37:30;;;;;;;4.55;1.60;;;;;;;17.69;84.60;100243.00;3580748;40;20292;-64
2022/10/15 11:40:39;;;;;;;2.38;1.30;;;;;;;17.62;84.91;100239.19;3580304;40;20080;-67
2022/10/15 11:43:23;;;;;;;1.67;1.58;;;;;;;17.65;85.72;100238.88;3576743;40;20049;-64